createdAt,value
2018-05-03T00:01:35.306Z,12.60
2018-05-03T00:04:01.596Z,12.60
2018-05-03T00:06:27.914Z,12.90
2018-05-03T00:08:54.198Z,13.10
2018-05-03T00:11:20.543Z,12.70
2018-05-03T00:13:46.825Z,12.70
2018-05-03T00:16:13.125Z,12.60
2018-05-03T00:18:39.401Z,12.70
2018-05-03T00:21:06.437Z,12.50
2018-05-03T00:23:32.719Z,12.60
2018-05-03T00:25:59.735Z,12.70
2018-05-03T00:28:26.766Z,12.50
2018-05-03T00:30:53.785Z,12.70
2018-05-03T00:33:20.055Z,12.50
2018-05-03T00:35:47.070Z,12.40
2018-05-03T00:38:13.385Z,12.60
2018-05-03T00:40:39.666Z,12.70
2018-05-03T00:43:05.979Z,12.20
2018-05-03T00:45:32.996Z,12.00
2018-05-03T00:47:59.262Z,12.20
2018-05-03T00:50:26.307Z,12.30
2018-05-03T00:52:53.335Z,12.20
2018-05-03T00:55:19.606Z,12.30
2018-05-03T00:57:45.895Z,12.10
2018-05-03T01:00:12.179Z,12.20
2018-05-03T01:02:38.469Z,12.20
2018-05-03T01:05:04.749Z,12.00
2018-05-03T01:07:31.030Z,12.10
2018-05-03T01:09:57.298Z,12.20
2018-05-03T01:12:23.929Z,12.10
2018-05-03T01:14:50.213Z,12.50
2018-05-03T01:17:16.473Z,11.90
2018-05-03T01:19:43.494Z,12.30
2018-05-03T01:22:09.744Z,12.30
2018-05-03T01:24:36.775Z,12.10
2018-05-03T01:27:03.058Z,12.30
2018-05-03T01:29:29.333Z,12.60
2018-05-03T01:31:55.633Z,12.10
2018-05-03T01:34:21.909Z,12.20
2018-05-03T01:36:48.937Z,12.70
2018-05-03T01:39:15.202Z,12.50
2018-05-03T01:41:41.497Z,12.70
2018-05-03T01:44:07.766Z,12.50
2018-05-03T01:46:34.041Z,12.40
2018-05-03T01:49:00.319Z,12.40
2018-05-03T01:51:26.623Z,12.50
2018-05-03T01:53:52.944Z,12.70
2018-05-03T01:56:19.198Z,12.40
2018-05-03T01:58:46.227Z,12.50
2018-05-03T02:01:12.555Z,12.70
2018-05-03T02:03:38.822Z,12.70
2018-05-03T02:06:05.170Z,12.70
2018-05-03T02:08:31.438Z,12.80
2018-05-03T02:10:57.734Z,13.00
2018-05-03T02:13:24.747Z,12.50
2018-05-03T02:15:51.762Z,12.70
2018-05-03T02:18:18.022Z,13.10
2018-05-03T02:20:45.038Z,13.20
2018-05-03T02:23:11.309Z,13.00
2018-05-03T02:25:37.581Z,12.90
2018-05-03T02:28:03.898Z,13.10
2018-05-03T02:30:30.180Z,13.10
2018-05-03T02:32:56.432Z,13.20
2018-05-03T02:35:22.702Z,13.10
2018-05-03T02:37:48.964Z,13.10
2018-05-03T02:40:15.999Z,13.20
2018-05-03T02:42:42.250Z,13.20
2018-05-03T02:45:09.306Z,13.10
2018-05-03T02:47:36.320Z,13.10
2018-05-03T02:50:02.671Z,13.10
2018-05-03T02:52:29.716Z,12.90
2018-05-03T02:54:55.969Z,13.10
2018-05-03T02:57:34.555Z,12.90
2018-05-03T03:00:19.437Z,13.10
2018-05-03T03:03:04.701Z,13.10
2018-05-03T03:05:49.425Z,13.20
2018-05-03T03:11:53.163Z,13.10
2018-05-03T03:14:37.971Z,13.10
2018-05-03T03:20:54.123Z,12.80
2018-05-03T03:26:59.970Z,13.10
2018-05-03T03:29:43.474Z,13.60
2018-05-03T03:32:22.081Z,13.50
2018-05-03T03:38:11.426Z,13.50
2018-05-03T03:40:49.850Z,13.50
2018-05-03T03:43:28.524Z,13.30
2018-05-03T03:45:54.823Z,13.50
2018-05-03T03:48:21.101Z,13.40
2018-05-03T03:50:48.161Z,13.30
2018-05-03T03:53:15.196Z,13.30
2018-05-03T03:55:42.210Z,13.00
2018-05-03T03:58:08.506Z,12.90
2018-05-03T04:00:34.789Z,13.60
2018-05-03T04:03:01.054Z,13.50
2018-05-03T04:05:27.362Z,13.40
2018-05-03T04:07:53.625Z,13.60
2018-05-03T04:10:19.906Z,13.50
2018-05-03T04:12:46.183Z,13.20
2018-05-03T04:15:12.481Z,13.50
2018-05-03T04:17:51.863Z,12.90
2018-05-03T04:20:39.088Z,13.10
2018-05-03T04:23:12.318Z,13.00
2018-05-03T04:25:50.810Z,13.00
2018-05-03T04:28:17.145Z,12.80
2018-05-03T04:30:43.425Z,13.00
2018-05-03T04:33:09.723Z,13.00
2018-05-03T04:35:36.006Z,13.10
2018-05-03T04:38:02.306Z,12.50
2018-05-03T04:40:28.637Z,12.60
2018-05-03T04:42:55.654Z,12.60
2018-05-03T04:45:21.925Z,12.50
2018-05-03T04:47:48.209Z,12.50
2018-05-03T04:50:14.513Z,12.50
2018-05-03T04:52:40.878Z,12.50
2018-05-03T04:55:07.154Z,12.80
2018-05-03T04:57:33.434Z,12.70
2018-05-03T04:59:59.711Z,12.50
2018-05-03T05:02:26.756Z,12.50
2018-05-03T05:04:53.796Z,12.80
2018-05-03T05:07:20.827Z,12.80
2018-05-03T05:09:47.905Z,12.50
2018-05-03T05:12:14.181Z,12.80
2018-05-03T05:14:40.466Z,13.00
2018-05-03T05:17:06.827Z,12.90
2018-05-03T05:19:33.129Z,13.20
2018-05-03T05:21:59.429Z,12.90
2018-05-03T05:24:25.721Z,13.10
2018-05-03T05:26:52.011Z,13.00
2018-05-03T05:29:19.048Z,13.00
2018-05-03T05:31:46.075Z,13.40
2018-05-03T05:34:12.351Z,13.30
2018-05-03T05:36:38.658Z,13.00
2018-05-03T05:39:05.748Z,13.30
2018-05-03T05:41:32.062Z,13.40
2018-05-03T05:43:58.350Z,13.60
2018-05-03T05:46:24.663Z,13.50
2018-05-03T05:48:51.035Z,13.40
2018-05-03T05:51:18.078Z,13.60
2018-05-03T05:53:45.116Z,13.30
2018-05-03T05:56:11.402Z,13.50
2018-05-03T05:58:37.690Z,13.60
2018-05-03T06:01:04.718Z,13.60
2018-05-03T06:03:31.766Z,13.60
2018-05-03T06:05:58.081Z,13.40
2018-05-03T06:08:24.390Z,13.30
2018-05-03T06:10:50.702Z,13.60
2018-05-03T06:13:17.031Z,13.60
2018-05-03T06:15:43.358Z,14.00
2018-05-03T06:18:09.695Z,13.90
2018-05-03T06:20:35.983Z,14.10
2018-05-03T06:23:02.295Z,14.20
2018-05-03T06:25:28.602Z,14.30
2018-05-03T06:27:54.898Z,14.10
2018-05-03T06:30:21.213Z,14.50
2018-05-03T06:32:48.229Z,14.20
2018-05-03T06:35:14.518Z,14.10
2018-05-03T06:37:40.811Z,13.90
2018-05-03T06:40:07.134Z,14.40
2018-05-03T06:42:33.417Z,14.60
2018-05-03T06:44:59.742Z,14.60
2018-05-03T06:47:26.017Z,15.20
2018-05-03T06:49:52.330Z,15.50
2018-05-03T06:52:18.591Z,16.70
2018-05-03T06:54:45.044Z,18.30
2018-05-03T06:57:12.058Z,20.30
2018-05-03T06:59:38.371Z,20.40
2018-05-03T07:02:04.715Z,20.60
2018-05-03T07:04:31.001Z,21.20
2018-05-03T07:06:57.315Z,21.00
2018-05-03T07:09:24.367Z,19.80
2018-05-03T07:11:51.456Z,19.50
2018-05-03T07:14:17.725Z,19.30
2018-05-03T07:16:44.036Z,19.40
2018-05-03T07:19:10.305Z,20.30
2018-05-03T07:21:37.321Z,21.90
2018-05-03T07:24:03.667Z,21.50
2018-05-03T07:26:30.690Z,20.70
2018-05-03T07:28:56.983Z,20.50
2018-05-03T07:31:23.338Z,20.00
2018-05-03T07:33:49.614Z,19.40
2018-05-03T07:36:16.666Z,19.10
2018-05-03T07:38:43.730Z,19.30
2018-05-03T07:41:10.059Z,19.40
2018-05-03T07:43:37.125Z,19.70
2018-05-03T07:46:03.448Z,19.60
2018-05-03T07:48:29.727Z,21.10
2018-05-03T07:50:56.051Z,19.60
2018-05-03T07:53:22.378Z,19.70
2018-05-03T07:55:48.681Z,19.50
2018-05-03T07:58:14.974Z,19.50
2018-05-03T08:00:42.011Z,18.10
2018-05-03T08:03:09.067Z,18.10
2018-05-03T08:05:35.348Z,17.90
2018-05-03T08:08:01.647Z,19.40
2018-05-03T08:10:27.942Z,19.60
2018-05-03T08:12:54.226Z,18.50
2018-05-03T08:15:20.543Z,18.70
2018-05-03T08:17:46.827Z,19.10
2018-05-03T08:20:13.107Z,20.20
2018-05-03T08:22:39.437Z,21.20
2018-05-03T08:25:05.715Z,22.80
2018-05-03T08:27:32.029Z,23.40
2018-05-03T08:29:58.322Z,23.90
2018-05-03T08:32:24.618Z,24.00
2018-05-03T08:34:50.911Z,23.70
2018-05-03T08:37:17.212Z,22.50
2018-05-03T08:39:43.550Z,20.90
2018-05-03T08:42:09.822Z,21.70
2018-05-03T08:44:36.114Z,21.80
2018-05-03T08:47:02.438Z,21.50
2018-05-03T08:49:28.832Z,20.70
2018-05-03T08:51:55.130Z,21.70
2018-05-03T08:54:21.410Z,22.20
2018-05-03T08:56:48.427Z,22.00
2018-05-03T08:59:14.746Z,22.00
2018-05-03T09:01:41.083Z,22.00
2018-05-03T09:04:07.341Z,20.90
2018-05-03T09:06:34.411Z,21.60
2018-05-03T09:09:00.738Z,21.40
2018-05-03T09:11:27.110Z,22.30
2018-05-03T09:13:53.390Z,24.20
2018-05-03T09:16:19.735Z,26.00
2018-05-03T09:18:46.739Z,24.70
2018-05-03T09:21:13.047Z,24.80
2018-05-03T09:23:39.381Z,24.50
2018-05-03T09:26:05.663Z,22.70
2018-05-03T09:28:32.693Z,23.10
2018-05-03T09:30:58.960Z,22.70
2018-05-03T09:33:25.998Z,23.20
2018-05-03T09:35:53.043Z,24.20
2018-05-03T09:38:20.073Z,24.30
2018-05-03T09:40:47.143Z,23.90
2018-05-03T09:43:14.144Z,25.40
2018-05-03T09:45:40.418Z,25.60
2018-05-03T09:48:07.450Z,23.50
2018-05-03T09:50:34.490Z,21.50
2018-05-03T09:53:00.782Z,21.40
2018-05-03T09:55:27.063Z,20.00
2018-05-03T09:57:54.089Z,22.30
2018-05-03T10:00:20.395Z,22.30
2018-05-03T10:02:46.726Z,23.40
2018-05-03T10:05:13.870Z,23.70
2018-05-03T10:07:40.121Z,25.30
2018-05-03T10:10:06.399Z,24.20
2018-05-03T10:12:32.720Z,24.60
2018-05-03T10:14:59.750Z,25.60
2018-05-03T10:17:26.864Z,25.50
2018-05-03T10:19:53.193Z,25.40
2018-05-03T10:22:19.512Z,23.10
2018-05-03T10:24:45.855Z,21.40
2018-05-03T10:27:12.187Z,21.20
2018-05-03T10:29:38.506Z,21.90
2018-05-03T10:32:04.810Z,21.70
2018-05-03T10:34:31.107Z,21.90
2018-05-03T10:36:57.424Z,22.70
2018-05-03T10:39:23.720Z,21.70
2018-05-03T10:41:50.059Z,19.60
2018-05-03T10:44:16.311Z,19.10
2018-05-03T10:46:42.609Z,18.90
2018-05-03T10:49:09.014Z,20.50
2018-05-03T10:51:35.259Z,20.80
2018-05-03T10:54:01.553Z,22.10
2018-05-03T10:56:27.879Z,22.90
2018-05-03T10:58:54.174Z,23.80
2018-05-03T11:01:20.461Z,24.80
2018-05-03T11:03:47.494Z,23.40
2018-05-03T11:06:13.808Z,23.70
2018-05-03T11:08:40.142Z,22.90
2018-05-03T11:11:07.277Z,23.10
2018-05-03T11:13:33.613Z,23.30
2018-05-03T11:15:59.906Z,23.70
2018-05-03T11:18:26.207Z,23.40
2018-05-03T11:20:53.226Z,24.40
2018-05-03T11:23:19.517Z,24.50
2018-05-03T11:25:45.816Z,24.60
2018-05-03T11:28:12.847Z,25.20
2018-05-03T11:30:39.142Z,25.20
2018-05-03T11:33:05.426Z,24.90
2018-05-03T11:35:31.756Z,24.70
2018-05-03T11:37:58.810Z,23.60
2018-05-03T11:40:25.861Z,22.00
2018-05-03T11:42:52.898Z,21.50
2018-05-03T11:45:19.916Z,21.80
2018-05-03T11:47:46.189Z,22.10
2018-05-03T11:50:12.495Z,22.70
2018-05-03T11:52:38.766Z,21.30
2018-05-03T11:55:05.079Z,20.00
2018-05-03T11:57:31.400Z,19.40
2018-05-03T11:59:57.704Z,19.60
2018-05-03T12:02:24.103Z,19.40
2018-05-03T12:04:50.318Z,19.50
2018-05-03T12:07:16.632Z,19.80
2018-05-03T12:09:42.898Z,19.60
2018-05-03T12:12:09.166Z,19.70
2018-05-03T12:14:35.493Z,20.00
2018-05-03T12:17:01.771Z,20.00
2018-05-03T12:19:28.091Z,19.90
2018-05-03T12:21:54.387Z,19.30
2018-05-03T12:24:20.718Z,19.10
2018-05-03T12:26:46.998Z,19.20
2018-05-03T12:29:13.272Z,19.60
2018-05-03T12:31:39.590Z,20.00
2018-05-03T12:34:05.866Z,20.40
2018-05-03T12:36:32.166Z,21.40
2018-05-03T12:38:58.467Z,21.30
2018-05-03T12:41:24.756Z,20.50
2018-05-03T12:43:51.890Z,21.10
2018-05-03T12:46:18.184Z,21.20
2018-05-03T12:48:44.482Z,20.40
2018-05-03T12:51:10.778Z,19.50
2018-05-03T12:53:37.798Z,19.20
2018-05-03T12:56:04.156Z,19.60
2018-05-03T12:58:31.179Z,20.00
2018-05-03T13:00:58.211Z,19.50
2018-05-03T13:03:24.509Z,19.60
2018-05-03T13:05:50.852Z,20.20
2018-05-03T13:08:17.173Z,20.80
2018-05-03T13:10:43.470Z,20.80
2018-05-03T13:13:10.496Z,20.90
2018-05-03T13:15:36.781Z,20.90
2018-05-03T13:18:03.098Z,20.20
2018-05-03T13:20:29.415Z,19.80
2018-05-03T13:22:56.455Z,19.70
2018-05-03T13:25:22.770Z,19.80
2018-05-03T13:27:49.083Z,20.20
2018-05-03T13:30:15.357Z,20.60
2018-05-03T13:32:42.414Z,21.30
2018-05-03T13:35:09.452Z,21.50
2018-05-03T13:37:36.481Z,21.80
2018-05-03T13:40:03.553Z,22.30
2018-05-03T13:42:29.846Z,22.10
2018-05-03T13:44:56.155Z,21.40
2018-05-03T13:47:22.528Z,21.00
2018-05-03T13:49:48.768Z,22.30
2018-05-03T13:52:15.846Z,22.90
2018-05-03T13:54:42.110Z,23.00
2018-05-03T13:57:08.438Z,23.20
2018-05-03T13:59:34.730Z,22.40
2018-05-03T14:02:01.028Z,21.30
2018-05-03T14:04:27.897Z,21.20
2018-05-03T14:06:54.172Z,22.40
2018-05-03T14:09:20.430Z,23.20
2018-05-03T14:11:46.743Z,23.50
2018-05-03T14:14:13.003Z,23.50
2018-05-03T14:16:40.077Z,23.10
2018-05-03T14:19:06.406Z,23.10
2018-05-03T14:21:32.704Z,21.00
2018-05-03T14:23:59.723Z,21.70
2018-05-03T14:26:26.042Z,21.60
2018-05-03T14:28:52.354Z,23.30
2018-05-03T14:31:18.665Z,24.60
2018-05-03T14:33:44.954Z,24.00
2018-05-03T14:36:11.226Z,24.10
2018-05-03T14:38:37.543Z,24.00
2018-05-03T14:41:04.561Z,23.90
2018-05-03T14:43:30.870Z,24.30
2018-05-03T14:45:57.172Z,23.40
2018-05-03T14:48:23.488Z,22.80
2018-05-03T14:50:49.794Z,22.10
2018-05-03T14:53:16.066Z,22.70
2018-05-03T14:55:42.365Z,23.20
2018-05-03T14:58:09.391Z,22.20
2018-05-03T15:00:35.664Z,22.10
2018-05-03T15:03:01.967Z,23.00
2018-05-03T15:05:28.306Z,23.10
2018-05-03T15:07:55.390Z,23.00
2018-05-03T15:10:21.754Z,23.40
2018-05-03T15:12:48.216Z,24.50
2018-05-03T15:15:14.368Z,24.30
2018-05-03T15:17:40.674Z,23.60
2018-05-03T15:20:07.738Z,24.30
2018-05-03T15:22:34.755Z,23.80
2018-05-03T15:25:01.806Z,23.60
2018-05-03T15:27:28.105Z,23.20
2018-05-03T15:29:54.386Z,23.40
2018-05-03T15:32:21.461Z,22.40
2018-05-03T15:34:47.799Z,22.40
2018-05-03T15:37:14.113Z,21.50
2018-05-03T15:39:40.431Z,22.40
2018-05-03T15:42:06.730Z,23.00
2018-05-03T15:44:33.099Z,22.10
2018-05-03T15:46:59.430Z,21.70
2018-05-03T15:49:25.712Z,21.20
2018-05-03T15:51:52.034Z,22.20
2018-05-03T15:54:18.355Z,22.70
2018-05-03T15:56:44.681Z,21.10
2018-05-03T15:59:11.028Z,20.40
2018-05-03T16:01:37.390Z,21.00
2018-05-03T16:04:03.626Z,21.50
2018-05-03T16:06:30.660Z,20.90
2018-05-03T16:08:57.913Z,21.00
2018-05-03T16:11:25.068Z,21.90
2018-05-03T16:13:51.342Z,21.80
2018-05-03T16:16:17.648Z,22.00
2018-05-03T16:18:43.987Z,21.90
2018-05-03T16:21:10.317Z,22.30
2018-05-03T16:23:36.628Z,21.30
2018-05-03T16:26:02.957Z,21.60
2018-05-03T16:28:29.362Z,21.60
2018-05-03T16:30:55.654Z,21.70
2018-05-03T16:33:21.983Z,21.80
2018-05-03T16:35:48.286Z,21.80
2018-05-03T16:38:14.626Z,21.70
2018-05-03T16:40:41.074Z,21.20
2018-05-03T16:43:07.418Z,20.40
2018-05-03T16:45:33.760Z,19.70
2018-05-03T16:48:00.050Z,20.30
2018-05-03T16:50:26.395Z,20.00
2018-05-03T16:52:52.756Z,20.30
2018-05-03T16:55:19.107Z,21.00
2018-05-03T16:57:45.577Z,20.10
2018-05-03T17:00:11.918Z,20.30
2018-05-03T17:02:38.251Z,19.80
2018-05-03T17:05:04.635Z,19.90
2018-05-03T17:07:31.005Z,19.80
2018-05-03T17:09:58.079Z,20.00
2018-05-03T17:12:24.395Z,20.20
2018-05-03T17:14:51.630Z,19.30
2018-05-03T17:17:17.979Z,19.50
2018-05-03T17:19:44.291Z,19.10
2018-05-03T17:22:11.334Z,18.90
2018-05-03T17:24:38.398Z,18.90
2018-05-03T17:27:05.466Z,18.80
2018-05-03T17:29:31.779Z,18.90
2018-05-03T17:31:58.144Z,18.70
2018-05-03T17:34:24.458Z,18.70
2018-05-03T17:36:50.743Z,18.60
2018-05-03T17:39:17.110Z,18.60
2018-05-03T17:41:43.443Z,18.80
2018-05-03T17:44:09.727Z,18.20
2018-05-03T17:46:36.022Z,18.50
2018-05-03T17:49:02.347Z,18.30
2018-05-03T17:51:28.696Z,18.00
2018-05-03T17:53:55.036Z,18.30
2018-05-03T17:56:21.352Z,18.30
2018-05-03T17:58:47.678Z,18.10
2018-05-03T18:01:14.722Z,18.10
2018-05-03T18:03:41.019Z,18.10
2018-05-03T18:06:08.086Z,17.60
2018-05-03T18:08:35.590Z,18.00
2018-05-03T18:11:01.925Z,17.70
2018-05-03T18:13:28.210Z,17.70
2018-05-03T18:15:55.278Z,17.20
2018-05-03T18:18:21.553Z,17.40
2018-05-03T18:20:48.610Z,17.70
2018-05-03T18:23:15.662Z,17.70
2018-05-03T18:25:41.962Z,17.20
2018-05-03T18:28:08.377Z,17.40
2018-05-03T18:30:34.659Z,17.10
2018-05-03T18:33:00.965Z,17.10
2018-05-03T18:35:27.310Z,17.00
2018-05-03T18:37:54.347Z,17.10
2018-05-03T18:40:20.688Z,16.60
2018-05-03T18:42:47.770Z,16.60
2018-05-03T18:45:14.096Z,17.00
2018-05-03T18:47:40.476Z,16.70
2018-05-03T18:50:06.755Z,16.60
2018-05-03T18:52:33.064Z,16.50
2018-05-03T18:54:59.398Z,16.40
2018-05-03T18:57:26.430Z,16.50
2018-05-03T18:59:52.745Z,16.40
2018-05-03T19:02:19.052Z,16.30
2018-05-03T19:04:45.358Z,16.30
2018-05-03T19:07:11.631Z,16.00
2018-05-03T19:09:37.946Z,15.90
2018-05-03T19:12:04.253Z,16.00
2018-05-03T19:14:30.673Z,15.80
2018-05-03T19:16:57.030Z,16.00
2018-05-03T19:19:23.386Z,16.30
2018-05-03T19:21:49.679Z,15.90
2018-05-03T19:24:16.007Z,15.90
2018-05-03T19:26:42.311Z,15.40
2018-05-03T19:29:09.373Z,15.60
2018-05-03T19:31:36.430Z,15.80
2018-05-03T19:34:02.776Z,15.70
2018-05-03T19:36:29.146Z,15.80
2018-05-03T19:38:55.442Z,15.70
2018-05-03T19:41:21.787Z,15.40
2018-05-03T19:43:48.069Z,15.60
2018-05-03T19:46:14.358Z,15.60
2018-05-03T19:48:40.671Z,15.30
2018-05-03T19:51:06.970Z,15.20
2018-05-03T19:53:33.303Z,15.30
2018-05-03T19:55:59.598Z,15.20
2018-05-03T19:58:25.899Z,15.40
2018-05-03T20:00:52.199Z,15.30
2018-05-03T20:03:18.531Z,15.50
2018-05-03T20:05:44.858Z,15.20
2018-05-03T20:08:11.151Z,15.10
2018-05-03T20:10:38.198Z,15.10
2018-05-03T20:13:04.511Z,15.20
2018-05-03T20:15:30.823Z,15.20
2018-05-03T20:17:57.126Z,15.10
2018-05-03T20:20:23.431Z,15.20
2018-05-03T20:22:49.801Z,14.70
2018-05-03T20:25:16.119Z,15.10
2018-05-03T20:27:42.421Z,14.70
2018-05-03T20:30:09.458Z,14.60
2018-05-03T20:32:35.760Z,14.90
2018-05-03T20:35:02.087Z,14.60
2018-05-03T20:37:29.181Z,14.90
2018-05-03T20:39:56.239Z,14.70
2018-05-03T20:42:22.593Z,14.80
2018-05-03T20:44:48.895Z,15.00
2018-05-03T20:47:15.943Z,14.50
2018-05-03T20:49:42.217Z,14.60
2018-05-03T20:52:08.537Z,14.50
2018-05-03T20:54:34.847Z,14.80
2018-05-03T20:57:01.876Z,14.30
2018-05-03T20:59:28.188Z,14.60
2018-05-03T21:01:54.478Z,14.20
2018-05-03T21:04:20.754Z,14.20
2018-05-03T21:06:47.044Z,14.20
2018-05-03T21:09:13.378Z,14.10
2018-05-03T21:11:39.682Z,14.20
2018-05-03T21:14:06.012Z,14.20
2018-05-03T21:16:32.370Z,14.10
2018-05-03T21:18:58.692Z,14.20
2018-05-03T21:21:25.002Z,13.90
2018-05-03T21:23:52.055Z,13.70
2018-05-03T21:26:18.441Z,13.60
2018-05-03T21:28:44.712Z,13.80
2018-05-03T21:31:11.747Z,13.70
2018-05-03T21:33:38.775Z,13.50
2018-05-03T21:36:05.866Z,13.10
2018-05-03T21:38:32.154Z,13.30
2018-05-03T21:40:58.433Z,13.30
2018-05-03T21:43:24.746Z,13.50
2018-05-03T21:45:51.018Z,13.10
2018-05-03T21:48:17.328Z,13.10
2018-05-03T21:50:43.624Z,13.50
2018-05-03T21:53:10.640Z,13.10
2018-05-03T21:55:37.724Z,13.30
2018-05-03T21:58:04.778Z,13.20
2018-05-03T22:00:31.111Z,13.00
2018-05-03T22:02:57.474Z,13.10
2018-05-03T22:05:23.804Z,13.00
2018-05-03T22:07:50.115Z,12.80
2018-05-03T22:10:16.417Z,12.80
2018-05-03T22:12:43.470Z,13.10
2018-05-03T22:15:09.799Z,13.10
2018-05-03T22:17:36.846Z,12.50
2018-05-03T22:20:03.894Z,12.70
2018-05-03T22:22:30.259Z,12.80
2018-05-03T22:24:56.607Z,12.60
2018-05-03T22:27:22.907Z,12.80
2018-05-03T22:29:49.238Z,12.70
2018-05-03T22:32:15.518Z,12.70
2018-05-03T22:34:41.823Z,12.60
2018-05-03T22:37:08.140Z,12.50
2018-05-03T22:39:34.442Z,12.70
2018-05-03T22:42:01.491Z,12.70
2018-05-03T22:44:28.524Z,12.10
2018-05-03T22:46:54.857Z,12.60
2018-05-03T22:49:21.199Z,12.30
2018-05-03T22:51:48.260Z,12.30
2018-05-03T22:54:14.579Z,12.10
2018-05-03T22:56:41.627Z,12.10
2018-05-03T22:59:08.659Z,12.30
2018-05-03T23:01:35.018Z,12.30
2018-05-03T23:04:02.052Z,12.20
2018-05-03T23:06:29.155Z,11.90
2018-05-03T23:08:55.466Z,12.00
2018-05-03T23:11:21.758Z,12.10
2018-05-03T23:13:48.839Z,12.20
2018-05-03T23:16:15.143Z,11.80
2018-05-03T23:18:42.207Z,11.60
2018-05-03T23:21:09.229Z,11.70
2018-05-03T23:23:35.528Z,11.90
2018-05-03T23:26:01.897Z,11.90
2018-05-03T23:28:28.131Z,11.70
2018-05-03T23:30:55.178Z,11.60
2018-05-03T23:33:22.916Z,11.80
2018-05-03T23:35:49.210Z,11.60
2018-05-03T23:38:15.499Z,11.80
2018-05-03T23:40:41.787Z,11.30
2018-05-03T23:43:08.094Z,11.10
2018-05-03T23:45:35.133Z,11.20
2018-05-03T23:48:01.416Z,11.40
2018-05-03T23:50:27.746Z,11.30
2018-05-03T23:52:54.050Z,11.20
2018-05-03T23:55:20.376Z,11.40
2018-05-03T23:57:46.693Z,11.20
